Contacto
 Mi cuenta

Carta Natal online

Herramientas y recursos para el cálculo de la carta natal
Países » Italia

CIUDADES DE Italia


Coordenadas geográficas y zona horaria actual de 20336 ciudades de Italia.

Para reducir el número de resultados, seleccione un(a) provincia:

Se muestran 151 a 200 de un total de 20336 ciudades:

CiudadLatitudLongitudZona horariaProvincia
Agra46°02′12″N08°46′06″EUT+02:00Varese
Agrano45°50′45″N08°24′55″EUT+02:00Verbano-Cusio-Ossola
Agrate Brianza45°34′40″N09°21′05″EUT+02:00Monza e Brianza
Agrate Conturbia45°40′32″N08°33′35″EUT+02:00Novara
Agriano42°45′00″N13°01′00″EUT+02:00Perugia
Agrifoglio39°08′00″N16°20′00″EUT+02:00Cosenza
Agrigento37°19′15″N13°35′20″EUT+02:00Agrigento
Agrimonte44°28′00″N10°04′00″EUT+02:00Parma
Agriturismo e cantina la Sabbiona44°14′00″N11°55′03″EUT+02:00Ravenna
Agro46°13′00″N08°12′00″EUT+02:00Verbano-Cusio-Ossola
Agrons46°28′16″N12°51′35″EUT+02:00Udine
Agropoli40°20′49″N14°59′48″EUT+02:00Salerno
Agugliano43°32′37″N13°23′22″EUT+02:00Ancona
Agugliaro45°19′31″N11°35′03″EUT+02:00Vicenza
Aguiaro45°00′00″N11°54′00″EUT+02:00Rovigo
Agums46°37′00″N10°35′00″EUT+02:00Bolzano
Aguzzo42°29′00″N12°37′00″EUT+02:00Terni
Ai colli43°54′32″N10°36′07″EUT+02:00Lucca
Aia Bosco44°44′00″N11°30′00″EUT+02:00Bologna
Aia Murata43°33′00″N11°03′00″EUT+02:00Firenze
Aia Salina44°36′00″N11°42′00″EUT+02:00Bologna
Aica46°46′37″N11°38′38″EUT+02:00Bolzano
Aicurzio45°38′24″N09°24′54″EUT+02:00Monza e Brianza
Aidomaggiore40°10′15″N08°51′24″EUT+02:00Oristano
Aidone37°24′56″N14°26′43″EUT+02:00Enna
Aie44°47′00″N08°26′00″EUT+02:00Asti
Aielli42°04′51″N13°35′26″EUT+02:00L'Aquila
Aielli42°29′00″N13°18′00″EUT+02:00L'Aquila
Aiello42°35′00″N13°30′00″EUT+02:00Teramo
Aiello Calabro39°07′03″N16°10′00″EUT+02:00Cosenza
Aiello del Friuli45°52′18″N13°21′56″EUT+02:00Udine
Aiello del Sabato40°53′21″N14°49′15″EUT+02:00Avellino
Aieta39°55′40″N15°49′25″EUT+02:00Cosenza
Aigovo43°58′00″N07°48′00″EUT+02:00Imperia
Ailano41°23′26″N14°12′18″EUT+02:00Caserta
Ailoche45°41′55″N08°13′16″EUT+02:00Biella
Aiola43°26′00″N11°21′00″EUT+02:00Siena
Airasca44°55′01″N07°29′04″EUT+02:00Torino
Airola41°03′40″N14°33′30″EUT+02:00Benevento
Airole43°52′15″N07°33′15″EUT+02:00Imperia
Airport Pisa43°41′54″N10°23′58″EUT+02:00Pisa
Airuno45°45′14″N09°25′27″EUT+02:00Lecco
Aisone44°18′50″N07°13′11″EUT+02:00Cuneo
Al Gallo46°51′00″N11°10′00″EUT+02:00Bolzano
Al Geccio46°06′00″N08°26′00″EUT+02:00Verbano-Cusio-Ossola
Al Maso46°31′00″N10°57′00″EUT+02:00Bolzano
Al Solivo46°13′00″N10°21′00″EUT+02:00Brescia
Ala45°45′32″N11°00′01″EUT+02:00Trento
Ala dei Sardi40°39′00″N09°19′40″EUT+02:00Olbia-Tempio
Ala di Stura45°18′55″N07°18′21″EUT+02:00Torino